Terminal Aerodrome Forecast
Issued by NWS Buffalo, NY

Current Version | Previous Version | Text Only | Print | Product List | Glossary On
Versions: 1 2 3 4 5 6 7 8 9 10 11 12 13 14 15 16 17 18 19 20 21 22 23 24 25 26 27 28
000
FTUS41 KBUF 250900 AAA
TAFART
TAF AMD
KART 250913Z 2509/2606 VRB04KT P6SM BKN060
     FM251200 21006KT P6SM SCT025 BKN035
     FM251600 22014G20KT P6SM SCT015 BKN035
     FM252000 22014G24KT 6SM -SHRA SCT015 OVC025
     FM260000 25014G25KT P6SM SCT035 BKN150
     FM260400 26014KT P6SM VCSH BKN025=

USA.gov is the U.S. government's official web portal to all federal, state and local government web resources and services.